sensor_id;sensor_type;location;lat;lon;timestamp;pressure;altitude;pressure_sealevel;temperature;humidity
73624;BME280;61921;53.226;-1.296;2022-07-05T00:00:49;101102.38;;;12.83;70.27
73624;BME280;61921;53.226;-1.296;2022-07-05T00:03:15;101105.80;;;12.93;70.00
73624;BME280;61921;53.226;-1.296;2022-07-05T00:05:40;101107.41;;;12.84;70.13
73624;BME280;61921;53.226;-1.296;2022-07-05T00:08:06;101112.11;;;12.68;70.77
73624;BME280;61921;53.226;-1.296;2022-07-05T00:10:31;101119.12;;;12.57;71.27
73624;BME280;61921;53.226;-1.296;2022-07-05T00:12:56;101117.58;;;12.65;71.13
73624;BME280;61921;53.226;-1.296;2022-07-05T00:15:22;101118.68;;;12.65;71.12
73624;BME280;61921;53.226;-1.296;2022-07-05T00:17:47;101118.91;;;12.71;70.94
73624;BME280;61921;53.226;-1.296;2022-07-05T00:20:12;101117.60;;;12.71;71.14
73624;BME280;61921;53.226;-1.296;2022-07-05T00:22:38;101116.67;;;12.79;71.08
73624;BME280;61921;53.226;-1.296;2022-07-05T00:25:09;101111.77;;;13.04;70.22
73624;BME280;61921;53.226;-1.296;2022-07-05T00:27:29;101116.60;;;13.03;70.09
73624;BME280;61921;53.226;-1.296;2022-07-05T00:29:54;101112.32;;;13.04;70.22
73624;BME280;61921;53.226;-1.296;2022-07-05T00:32:19;101106.68;;;13.01;70.49
73624;BME280;61921;53.226;-1.296;2022-07-05T00:34:45;101106.11;;;13.09;70.09
73624;BME280;61921;53.226;-1.296;2022-07-05T00:37:10;101106.44;;;13.28;69.17
73624;BME280;61921;53.226;-1.296;2022-07-05T00:39:36;101104.68;;;13.40;68.48
73624;BME280;61921;53.226;-1.296;2022-07-05T00:42:01;101104.83;;;13.30;69.01
73624;BME280;61921;53.226;-1.296;2022-07-05T00:44:30;101102.72;;;13.32;69.10
73624;BME280;61921;53.226;-1.296;2022-07-05T00:46:51;101102.75;;;13.46;68.83
73624;BME280;61921;53.226;-1.296;2022-07-05T00:49:17;101106.12;;;13.51;68.26
73624;BME280;61921;53.226;-1.296;2022-07-05T00:51:42;101110.76;;;13.22;69.62
73624;BME280;61921;53.226;-1.296;2022-07-05T00:54:08;101110.26;;;13.27;69.31
73624;BME280;61921;53.226;-1.296;2022-07-05T00:56:33;101108.68;;;13.13;69.76
73624;BME280;61921;53.226;-1.296;2022-07-05T00:58:58;101108.85;;;13.06;70.12
73624;BME280;61921;53.226;-1.296;2022-07-05T01:01:26;101108.33;;;12.93;70.74
73624;BME280;61921;53.226;-1.296;2022-07-05T01:03:49;101108.23;;;12.95;70.37
73624;BME280;61921;53.226;-1.296;2022-07-05T01:06:15;101107.56;;;13.03;70.19
73624;BME280;61921;53.226;-1.296;2022-07-05T01:08:41;101107.77;;;13.01;70.11
73624;BME280;61921;53.226;-1.296;2022-07-05T01:11:05;101112.78;;;12.93;70.30
73624;BME280;61921;53.226;-1.296;2022-07-05T01:13:31;101110.99;;;12.60;71.50
73624;BME280;61921;53.226;-1.296;2022-07-05T01:15:56;101114.07;;;12.75;70.27
73624;BME280;61921;53.226;-1.296;2022-07-05T01:18:22;101114.38;;;12.72;70.82
73624;BME280;61921;53.226;-1.296;2022-07-05T01:20:48;101115.92;;;12.57;72.01
73624;BME280;61921;53.226;-1.296;2022-07-05T01:23:12;101120.14;;;12.56;71.02
73624;BME280;61921;53.226;-1.296;2022-07-05T01:25:38;101118.36;;;12.44;72.52
73624;BME280;61921;53.226;-1.296;2022-07-05T01:28:04;101117.57;;;12.47;72.11
73624;BME280;61921;53.226;-1.296;2022-07-05T01:30:29;101119.10;;;12.31;72.95
73624;BME280;61921;53.226;-1.296;2022-07-05T01:32:54;101114.81;;;12.58;71.89
73624;BME280;61921;53.226;-1.296;2022-07-05T01:35:20;101108.91;;;12.74;70.96
73624;BME280;61921;53.226;-1.296;2022-07-05T01:37:45;101110.67;;;12.54;72.13
73624;BME280;61921;53.226;-1.296;2022-07-05T01:40:11;101107.83;;;12.45;72.69
73624;BME280;61921;53.226;-1.296;2022-07-05T01:42:36;101105.71;;;12.54;72.08
73624;BME280;61921;53.226;-1.296;2022-07-05T01:45:01;101105.44;;;12.66;71.49
73624;BME280;61921;53.226;-1.296;2022-07-05T01:47:26;101107.54;;;12.68;71.93
73624;BME280;61921;53.226;-1.296;2022-07-05T01:49:54;101108.22;;;12.83;70.84
73624;BME280;61921;53.226;-1.296;2022-07-05T01:52:20;101112.15;;;12.46;72.87
73624;BME280;61921;53.226;-1.296;2022-07-05T01:54:43;101109.89;;;12.58;71.58
73624;BME280;61921;53.226;-1.296;2022-07-05T01:57:08;101108.07;;;12.65;71.78
73624;BME280;61921;53.226;-1.296;2022-07-05T01:59:34;101107.02;;;12.67;71.77
73624;BME280;61921;53.226;-1.296;2022-07-05T02:01:59;101106.80;;;12.52;72.20
73624;BME280;61921;53.226;-1.296;2022-07-05T02:04:25;101107.04;;;12.56;72.07
73624;BME280;61921;53.226;-1.296;2022-07-05T02:06:50;101109.06;;;12.42;72.77
73624;BME280;61921;53.226;-1.296;2022-07-05T02:09:15;101109.52;;;12.41;72.67
73624;BME280;61921;53.226;-1.296;2022-07-05T02:11:40;101111.96;;;12.55;71.88
73624;BME280;61921;53.226;-1.296;2022-07-05T02:14:06;101108.33;;;12.65;71.66
73624;BME280;61921;53.226;-1.296;2022-07-05T02:16:31;101106.60;;;12.68;71.78
73624;BME280;61921;53.226;-1.296;2022-07-05T02:18:57;101109.63;;;12.58;72.06
73624;BME280;61921;53.226;-1.296;2022-07-05T02:21:22;101108.72;;;12.63;72.14
73624;BME280;61921;53.226;-1.296;2022-07-05T02:23:48;101105.82;;;12.76;71.11
73624;BME280;61921;53.226;-1.296;2022-07-05T02:26:13;101106.47;;;12.85;71.17
73624;BME280;61921;53.226;-1.296;2022-07-05T02:28:39;101103.48;;;12.69;71.69
73624;BME280;61921;53.226;-1.296;2022-07-05T02:31:04;101105.82;;;12.58;72.40
73624;BME280;61921;53.226;-1.296;2022-07-05T02:33:29;101102.05;;;12.79;71.08
73624;BME280;61921;53.226;-1.296;2022-07-05T02:35:54;101105.84;;;12.59;71.95
73624;BME280;61921;53.226;-1.296;2022-07-05T02:38:20;101102.78;;;12.65;71.49
73624;BME280;61921;53.226;-1.296;2022-07-05T02:40:45;101105.88;;;12.66;71.35
73624;BME280;61921;53.226;-1.296;2022-07-05T02:43:11;101105.17;;;12.76;70.85
73624;BME280;61921;53.226;-1.296;2022-07-05T02:45:36;101103.81;;;12.61;70.82
73624;BME280;61921;53.226;-1.296;2022-07-05T02:48:01;101106.73;;;12.71;70.43
73624;BME280;61921;53.226;-1.296;2022-07-05T02:50:27;101111.07;;;12.70;70.26
73624;BME280;61921;53.226;-1.296;2022-07-05T02:52:52;101113.37;;;12.74;70.09
73624;BME280;61921;53.226;-1.296;2022-07-05T02:55:17;101117.06;;;12.74;70.13
73624;BME280;61921;53.226;-1.296;2022-07-05T02:57:43;101112.62;;;12.79;69.82
73624;BME280;61921;53.226;-1.296;2022-07-05T03:00:09;101109.48;;;13.01;69.29
73624;BME280;61921;53.226;-1.296;2022-07-05T03:02:34;101106.22;;;13.05;68.96
73624;BME280;61921;53.226;-1.296;2022-07-05T03:04:59;101109.28;;;13.12;68.74
73624;BME280;61921;53.226;-1.296;2022-07-05T03:07:24;101111.96;;;12.95;69.18
73624;BME280;61921;53.226;-1.296;2022-07-05T03:09:50;101114.60;;;12.95;69.46
73624;BME280;61921;53.226;-1.296;2022-07-05T03:12:15;101112.76;;;12.76;69.38
73624;BME280;61921;53.226;-1.296;2022-07-05T03:14:40;101118.13;;;12.72;69.48
73624;BME280;61921;53.226;-1.296;2022-07-05T03:17:06;101126.94;;;12.74;69.24
73624;BME280;61921;53.226;-1.296;2022-07-05T03:19:31;101125.75;;;12.73;69.02
73624;BME280;61921;53.226;-1.296;2022-07-05T03:21:57;101127.49;;;12.76;68.72
73624;BME280;61921;53.226;-1.296;2022-07-05T03:24:22;101129.98;;;12.75;68.64
73624;BME280;61921;53.226;-1.296;2022-07-05T03:26:47;101125.75;;;12.79;68.55
73624;BME280;61921;53.226;-1.296;2022-07-05T03:29:13;101126.59;;;12.94;67.66
73624;BME280;61921;53.226;-1.296;2022-07-05T03:31:38;101127.05;;;12.92;67.92
73624;BME280;61921;53.226;-1.296;2022-07-05T03:34:04;101127.33;;;12.90;68.07
73624;BME280;61921;53.226;-1.296;2022-07-05T03:36:29;101136.41;;;12.74;68.61
73624;BME280;61921;53.226;-1.296;2022-07-05T03:38:54;101136.57;;;12.80;68.52
73624;BME280;61921;53.226;-1.296;2022-07-05T03:41:20;101140.01;;;12.80;68.52
73624;BME280;61921;53.226;-1.296;2022-07-05T03:43:45;101140.21;;;12.82;68.42
73624;BME280;61921;53.226;-1.296;2022-07-05T03:46:11;101143.91;;;12.86;68.33
73624;BME280;61921;53.226;-1.296;2022-07-05T03:48:36;101145.02;;;12.94;68.18
73624;BME280;61921;53.226;-1.296;2022-07-05T03:51:01;101143.20;;;12.96;67.90
73624;BME280;61921;53.226;-1.296;2022-07-05T03:53:27;101146.29;;;12.98;68.00
73624;BME280;61921;53.226;-1.296;2022-07-05T03:55:52;101142.26;;;13.08;67.73
73624;BME280;61921;53.226;-1.296;2022-07-05T03:58:18;101141.41;;;13.09;67.81
73624;BME280;61921;53.226;-1.296;2022-07-05T04:00:43;101139.12;;;13.11;67.59
73624;BME280;61921;53.226;-1.296;2022-07-05T04:03:08;101135.27;;;13.13;67.70
73624;BME280;61921;53.226;-1.296;2022-07-05T04:05:34;101135.74;;;13.14;67.68
73624;BME280;61921;53.226;-1.296;2022-07-05T04:07:59;101137.71;;;13.07;68.05
73624;BME280;61921;53.226;-1.296;2022-07-05T04:10:25;101142.25;;;13.08;68.10
73624;BME280;61921;53.226;-1.296;2022-07-05T04:12:50;101139.16;;;13.18;67.84
73624;BME280;61921;53.226;-1.296;2022-07-05T04:15:15;101142.78;;;13.18;67.83
73624;BME280;61921;53.226;-1.296;2022-07-05T04:17:46;101146.69;;;13.36;67.38
73624;BME280;61921;53.226;-1.296;2022-07-05T04:20:07;101146.76;;;13.47;67.07
73624;BME280;61921;53.226;-1.296;2022-07-05T04:22:31;101152.32;;;13.61;66.60
73624;BME280;61921;53.226;-1.296;2022-07-05T04:24:56;101152.19;;;13.60;66.51
73624;BME280;61921;53.226;-1.296;2022-07-05T04:27:22;101150.27;;;13.81;65.95
73624;BME280;61921;53.226;-1.296;2022-07-05T04:29:47;101150.52;;;13.89;65.68
73624;BME280;61921;53.226;-1.296;2022-07-05T04:32:12;101152.59;;;13.92;65.60
73624;BME280;61921;53.226;-1.296;2022-07-05T04:34:38;101153.83;;;13.93;65.53
73624;BME280;61921;53.226;-1.296;2022-07-05T04:37:03;101153.09;;;13.92;65.62
73624;BME280;61921;53.226;-1.296;2022-07-05T04:39:28;101160.58;;;13.76;66.17
73624;BME280;61921;53.226;-1.296;2022-07-05T04:41:54;101163.71;;;13.68;66.50
73624;BME280;61921;53.226;-1.296;2022-07-05T04:44:19;101169.07;;;13.68;66.52
73624;BME280;61921;53.226;-1.296;2022-07-05T04:46:44;101166.33;;;13.62;66.79
73624;BME280;61921;53.226;-1.296;2022-07-05T04:49:10;101167.98;;;13.64;66.70
73624;BME280;61921;53.226;-1.296;2022-07-05T04:51:35;101166.92;;;13.70;65.92
73624;BME280;61921;53.226;-1.296;2022-07-05T04:54:01;101168.78;;;13.48;66.72
73624;BME280;61921;53.226;-1.296;2022-07-05T04:56:26;101177.01;;;13.62;66.23
73624;BME280;61921;53.226;-1.296;2022-07-05T04:58:51;101181.92;;;13.68;66.19
73624;BME280;61921;53.226;-1.296;2022-07-05T05:01:17;101178.80;;;13.76;66.14
73624;BME280;61921;53.226;-1.296;2022-07-05T05:03:42;101183.34;;;13.85;65.30
73624;BME280;61921;53.226;-1.296;2022-07-05T05:06:07;101185.89;;;13.97;65.32
73624;BME280;61921;53.226;-1.296;2022-07-05T05:08:33;101191.78;;;13.90;65.56
73624;BME280;61921;53.226;-1.296;2022-07-05T05:10:58;101191.63;;;13.68;65.98
73624;BME280;61921;53.226;-1.296;2022-07-05T05:13:24;101192.64;;;13.86;65.06
73624;BME280;61921;53.226;-1.296;2022-07-05T05:15:49;101192.39;;;14.19;64.34
73624;BME280;61921;53.226;-1.296;2022-07-05T05:18:14;101193.07;;;14.41;64.07
73624;BME280;61921;53.226;-1.296;2022-07-05T05:20:40;101195.70;;;14.42;64.25
73624;BME280;61921;53.226;-1.296;2022-07-05T05:23:05;101198.92;;;14.73;63.75
73624;BME280;61921;53.226;-1.296;2022-07-05T05:25:30;101203.63;;;14.92;62.58
73624;BME280;61921;53.226;-1.296;2022-07-05T05:27:56;101205.57;;;15.17;62.08
73624;BME280;61921;53.226;-1.296;2022-07-05T05:30:21;101209.89;;;15.29;62.54
73624;BME280;61921;53.226;-1.296;2022-07-05T05:32:47;101215.03;;;15.34;62.37
73624;BME280;61921;53.226;-1.296;2022-07-05T05:35:12;101218.78;;;15.48;61.95
73624;BME280;61921;53.226;-1.296;2022-07-05T05:37:46;101221.67;;;15.61;61.10
73624;BME280;61921;53.226;-1.296;2022-07-05T05:40:04;101221.01;;;15.66;60.35
73624;BME280;61921;53.226;-1.296;2022-07-05T05:42:28;101224.64;;;15.86;60.14
73624;BME280;61921;53.226;-1.296;2022-07-05T05:44:53;101225.12;;;16.02;60.02
73624;BME280;61921;53.226;-1.296;2022-07-05T05:47:18;101228.54;;;16.14;59.77
73624;BME280;61921;53.226;-1.296;2022-07-05T05:49:43;101226.89;;;16.20;59.40
73624;BME280;61921;53.226;-1.296;2022-07-05T05:52:09;101221.75;;;16.31;58.94
73624;BME280;61921;53.226;-1.296;2022-07-05T05:54:34;101219.32;;;16.35;59.04
73624;BME280;61921;53.226;-1.296;2022-07-05T05:56:59;101220.30;;;16.37;58.80
73624;BME280;61921;53.226;-1.296;2022-07-05T05:59:25;101218.59;;;16.34;58.79
73624;BME280;61921;53.226;-1.296;2022-07-05T06:01:50;101223.68;;;15.96;59.33
73624;BME280;61921;53.226;-1.296;2022-07-05T06:04:15;101224.60;;;16.04;60.12
73624;BME280;61921;53.226;-1.296;2022-07-05T06:06:41;101223.37;;;16.18;59.65
73624;BME280;61921;53.226;-1.296;2022-07-05T06:09:06;101230.63;;;15.98;59.82
73624;BME280;61921;53.226;-1.296;2022-07-05T06:11:31;101236.18;;;16.08;60.18
73624;BME280;61921;53.226;-1.296;2022-07-05T06:13:56;101236.58;;;16.02;60.25
73624;BME280;61921;53.226;-1.296;2022-07-05T06:16:22;101232.91;;;16.24;59.79
73624;BME280;61921;53.226;-1.296;2022-07-05T06:18:47;101236.85;;;16.15;59.88
73624;BME280;61921;53.226;-1.296;2022-07-05T06:21:12;101234.96;;;15.59;60.89
73624;BME280;61921;53.226;-1.296;2022-07-05T06:23:38;101231.55;;;15.39;62.45
73624;BME280;61921;53.226;-1.296;2022-07-05T06:26:03;101238.79;;;15.48;63.01
73624;BME280;61921;53.226;-1.296;2022-07-05T06:28:29;101233.35;;;15.40;62.99
73624;BME280;61921;53.226;-1.296;2022-07-05T06:30:54;101231.83;;;15.31;63.47
73624;BME280;61921;53.226;-1.296;2022-07-05T06:33:19;101239.48;;;15.50;63.59
73624;BME280;61921;53.226;-1.296;2022-07-05T06:35:44;101241.26;;;15.43;63.62
73624;BME280;61921;53.226;-1.296;2022-07-05T06:38:09;101247.45;;;15.35;63.86
73624;BME280;61921;53.226;-1.296;2022-07-05T06:40:36;101253.04;;;15.17;64.06
73624;BME280;61921;53.226;-1.296;2022-07-05T06:43:02;101251.70;;;15.04;64.34
73624;BME280;61921;53.226;-1.296;2022-07-05T06:45:25;101251.40;;;15.21;63.27
73624;BME280;61921;53.226;-1.296;2022-07-05T06:47:55;101256.12;;;15.48;62.58
73624;BME280;61921;53.226;-1.296;2022-07-05T06:50:16;101251.81;;;15.86;60.81
73624;BME280;61921;53.226;-1.296;2022-07-05T06:52:41;101248.50;;;15.95;60.76
73624;BME280;61921;53.226;-1.296;2022-07-05T06:55:07;101250.14;;;15.95;60.33
73624;BME280;61921;53.226;-1.296;2022-07-05T06:57:32;101257.70;;;15.93;60.12
73624;BME280;61921;53.226;-1.296;2022-07-05T06:59:59;101260.00;;;15.48;58.81
73624;BME280;61921;53.226;-1.296;2022-07-05T07:02:23;101268.85;;;15.45;60.19
73624;BME280;61921;53.226;-1.296;2022-07-05T07:04:48;101267.71;;;15.49;59.27
73624;BME280;61921;53.226;-1.296;2022-07-05T07:07:14;101264.65;;;15.33;58.53
73624;BME280;61921;53.226;-1.296;2022-07-05T07:09:39;101263.92;;;15.33;58.03
73624;BME280;61921;53.226;-1.296;2022-07-05T07:12:04;101268.47;;;15.56;57.90
73624;BME280;61921;53.226;-1.296;2022-07-05T07:14:29;101268.36;;;16.07;56.78
73624;BME280;61921;53.226;-1.296;2022-07-05T07:16:54;101267.98;;;15.97;56.59
73624;BME280;61921;53.226;-1.296;2022-07-05T07:19:20;101269.20;;;15.89;56.18
73624;BME280;61921;53.226;-1.296;2022-07-05T07:21:45;101270.14;;;15.55;56.49
73624;BME280;61921;53.226;-1.296;2022-07-05T07:24:11;101272.08;;;15.52;56.64
73624;BME280;61921;53.226;-1.296;2022-07-05T07:26:35;101275.59;;;15.83;56.64
73624;BME280;61921;53.226;-1.296;2022-07-05T07:29:01;101277.41;;;15.95;56.40
73624;BME280;61921;53.226;-1.296;2022-07-05T07:31:26;101281.56;;;16.04;55.31
73624;BME280;61921;53.226;-1.296;2022-07-05T07:33:51;101274.10;;;15.95;55.85
73624;BME280;61921;53.226;-1.296;2022-07-05T07:36:17;101275.07;;;16.03;56.02
73624;BME280;61921;53.226;-1.296;2022-07-05T07:38:42;101279.19;;;16.02;56.40
73624;BME280;61921;53.226;-1.296;2022-07-05T07:41:07;101286.85;;;16.14;56.49
73624;BME280;61921;53.226;-1.296;2022-07-05T07:43:32;101292.68;;;16.07;56.10
73624;BME280;61921;53.226;-1.296;2022-07-05T07:45:58;101292.12;;;15.99;56.21
73624;BME280;61921;53.226;-1.296;2022-07-05T07:48:23;101294.10;;;16.23;55.54
73624;BME280;61921;53.226;-1.296;2022-07-05T07:50:48;101297.25;;;16.12;55.79
73624;BME280;61921;53.226;-1.296;2022-07-05T07:53:14;101294.13;;;16.18;56.38
73624;BME280;61921;53.226;-1.296;2022-07-05T07:55:39;101296.36;;;16.43;56.33
73624;BME280;61921;53.226;-1.296;2022-07-05T07:58:04;101299.74;;;16.75;56.16
73624;BME280;61921;53.226;-1.296;2022-07-05T08:00:29;101301.44;;;17.06;55.26
73624;BME280;61921;53.226;-1.296;2022-07-05T08:02:55;101297.65;;;17.19;54.97
73624;BME280;61921;53.226;-1.296;2022-07-05T08:05:20;101299.97;;;17.55;54.75
73624;BME280;61921;53.226;-1.296;2022-07-05T08:07:45;101297.14;;;17.57;54.16
73624;BME280;61921;53.226;-1.296;2022-07-05T08:10:10;101301.67;;;17.21;55.37
73624;BME280;61921;53.226;-1.296;2022-07-05T08:12:36;101302.60;;;17.50;54.81
73624;BME280;61921;53.226;-1.296;2022-07-05T08:15:01;101308.21;;;17.07;55.42
73624;BME280;61921;53.226;-1.296;2022-07-05T08:17:26;101306.54;;;16.45;56.14
73624;BME280;61921;53.226;-1.296;2022-07-05T08:19:52;101306.58;;;16.40;56.69
73624;BME280;61921;53.226;-1.296;2022-07-05T08:22:17;101303.50;;;16.74;56.66
73624;BME280;61921;53.226;-1.296;2022-07-05T08:24:42;101302.42;;;16.53;56.81
73624;BME280;61921;53.226;-1.296;2022-07-05T08:27:07;101303.33;;;16.86;56.40
73624;BME280;61921;53.226;-1.296;2022-07-05T08:29:33;101305.87;;;16.96;55.51
73624;BME280;61921;53.226;-1.296;2022-07-05T08:31:58;101306.76;;;17.18;55.66
73624;BME280;61921;53.226;-1.296;2022-07-05T08:34:23;101309.51;;;17.02;55.22
73624;BME280;61921;53.226;-1.296;2022-07-05T08:36:48;101307.90;;;17.30;55.55
73624;BME280;61921;53.226;-1.296;2022-07-05T08:39:14;101310.56;;;17.26;55.51
73624;BME280;61921;53.226;-1.296;2022-07-05T08:41:40;101312.61;;;17.56;55.24
73624;BME280;61921;53.226;-1.296;2022-07-05T08:44:06;101313.18;;;17.77;54.75
73624;BME280;61921;53.226;-1.296;2022-07-05T08:46:30;101315.51;;;17.71;55.19
73624;BME280;61921;53.226;-1.296;2022-07-05T08:48:55;101316.27;;;17.60;55.11
73624;BME280;61921;53.226;-1.296;2022-07-05T08:51:21;101312.38;;;17.75;54.67
73624;BME280;61921;53.226;-1.296;2022-07-05T08:53:45;101313.89;;;17.67;54.47
73624;BME280;61921;53.226;-1.296;2022-07-05T08:56:12;101316.94;;;17.87;54.77
73624;BME280;61921;53.226;-1.296;2022-07-05T08:58:36;101322.37;;;17.29;55.63
73624;BME280;61921;53.226;-1.296;2022-07-05T09:01:01;101324.66;;;17.55;55.69
73624;BME280;61921;53.226;-1.296;2022-07-05T09:03:32;101328.60;;;17.71;55.11
73624;BME280;61921;53.226;-1.296;2022-07-05T09:05:53;101330.72;;;17.48;55.88
73624;BME280;61921;53.226;-1.296;2022-07-05T09:08:17;101333.77;;;17.53;56.49
73624;BME280;61921;53.226;-1.296;2022-07-05T09:10:42;101332.47;;;18.05;55.47
73624;BME280;61921;53.226;-1.296;2022-07-05T09:13:07;101335.78;;;18.25;55.17
73624;BME280;61921;53.226;-1.296;2022-07-05T09:15:32;101337.56;;;18.61;53.96
73624;BME280;61921;53.226;-1.296;2022-07-05T09:17:57;101334.22;;;18.26;55.06
73624;BME280;61921;53.226;-1.296;2022-07-05T09:20:22;101332.99;;;18.42;55.09
73624;BME280;61921;53.226;-1.296;2022-07-05T09:22:49;101327.68;;;18.96;54.13
73624;BME280;61921;53.226;-1.296;2022-07-05T09:25:17;101331.54;;;18.71;54.11
73624;BME280;61921;53.226;-1.296;2022-07-05T09:27:47;101335.05;;;18.69;54.57
73624;BME280;61921;53.226;-1.296;2022-07-05T09:30:06;101337.50;;;18.67;55.35
73624;BME280;61921;53.226;-1.296;2022-07-05T09:32:29;101336.94;;;18.89;55.26
73624;BME280;61921;53.226;-1.296;2022-07-05T09:34:54;101333.55;;;19.24;54.59
73624;BME280;61921;53.226;-1.296;2022-07-05T09:37:19;101334.53;;;18.92;53.70
73624;BME280;61921;53.226;-1.296;2022-07-05T09:39:44;101332.67;;;19.17;54.34
73624;BME280;61921;53.226;-1.296;2022-07-05T09:42:13;101337.66;;;18.94;54.19
73624;BME280;61921;53.226;-1.296;2022-07-05T09:44:36;101331.91;;;19.30;53.34
73624;BME280;61921;53.226;-1.296;2022-07-05T09:47:08;101337.00;;;19.42;54.09
73624;BME280;61921;53.226;-1.296;2022-07-05T09:49:26;101337.05;;;19.44;54.72
73624;BME280;61921;53.226;-1.296;2022-07-05T09:51:50;101334.11;;;19.33;55.41
73624;BME280;61921;53.226;-1.296;2022-07-05T09:54:16;101334.89;;;19.17;55.85
73624;BME280;61921;53.226;-1.296;2022-07-05T09:56:46;101331.83;;;19.19;55.53
73624;BME280;61921;53.226;-1.296;2022-07-05T09:59:14;101331.77;;;19.27;55.59
73624;BME280;61921;53.226;-1.296;2022-07-05T10:01:32;101334.06;;;19.16;55.94
73624;BME280;61921;53.226;-1.296;2022-07-05T10:03:58;101339.75;;;18.84;56.09
73624;BME280;61921;53.226;-1.296;2022-07-05T10:06:24;101339.68;;;19.06;55.82
73624;BME280;61921;53.226;-1.296;2022-07-05T10:08:48;101339.73;;;19.54;55.10
73624;BME280;61921;53.226;-1.296;2022-07-05T10:11:12;101335.44;;;20.01;53.36
73624;BME280;61921;53.226;-1.296;2022-07-05T10:13:38;101333.95;;;20.17;53.38
73624;BME280;61921;53.226;-1.296;2022-07-05T10:16:02;101337.11;;;20.28;53.66
73624;BME280;61921;53.226;-1.296;2022-07-05T10:18:27;101338.81;;;20.15;53.31
73624;BME280;61921;53.226;-1.296;2022-07-05T10:20:53;101341.67;;;20.01;53.09
73624;BME280;61921;53.226;-1.296;2022-07-05T10:23:18;101340.10;;;19.49;54.13
73624;BME280;61921;53.226;-1.296;2022-07-05T10:25:45;101337.91;;;19.76;53.96
73624;BME280;61921;53.226;-1.296;2022-07-05T10:28:08;101337.03;;;20.22;52.96
73624;BME280;61921;53.226;-1.296;2022-07-05T10:30:34;101342.08;;;20.00;53.26
73624;BME280;61921;53.226;-1.296;2022-07-05T10:32:59;101339.44;;;19.02;55.22
73624;BME280;61921;53.226;-1.296;2022-07-05T10:35:23;101339.29;;;18.99;56.07
73624;BME280;61921;53.226;-1.296;2022-07-05T10:37:49;101344.83;;;19.18;56.16
73624;BME280;61921;53.226;-1.296;2022-07-05T10:40:15;101340.45;;;19.35;56.51
73624;BME280;61921;53.226;-1.296;2022-07-05T10:42:40;101349.09;;;19.05;57.15
73624;BME280;61921;53.226;-1.296;2022-07-05T10:47:30;101340.58;;;19.43;56.58
73624;BME280;61921;53.226;-1.296;2022-07-05T10:50:02;101340.45;;;19.43;56.49
73624;BME280;61921;53.226;-1.296;2022-07-05T10:52:24;101338.18;;;19.99;55.07
73624;BME280;61921;53.226;-1.296;2022-07-05T10:57:22;101342.22;;;19.64;55.40
73624;BME280;61921;53.226;-1.296;2022-07-05T11:04:27;101344.03;;;19.88;54.94
73624;BME280;61921;53.226;-1.296;2022-07-05T11:06:50;101344.17;;;20.21;53.49
73624;BME280;61921;53.226;-1.296;2022-07-05T11:09:17;101339.87;;;20.11;53.93
73624;BME280;61921;53.226;-1.296;2022-07-05T11:11:42;101342.93;;;19.18;55.49
73624;BME280;61921;53.226;-1.296;2022-07-05T11:16:33;101348.21;;;18.99;55.74
73624;BME280;61921;53.226;-1.296;2022-07-05T11:19:04;101354.07;;;18.52;56.12
73624;BME280;61921;53.226;-1.296;2022-07-05T11:21:23;101353.84;;;18.76;56.07
73624;BME280;61921;53.226;-1.296;2022-07-05T11:23:47;101350.47;;;19.29;55.71
73624;BME280;61921;53.226;-1.296;2022-07-05T11:26:12;101349.77;;;19.78;54.35
73624;BME280;61921;53.226;-1.296;2022-07-05T11:28:42;101348.25;;;19.73;53.44
73624;BME280;61921;53.226;-1.296;2022-07-05T11:31:02;101346.29;;;19.71;52.58
73624;BME280;61921;53.226;-1.296;2022-07-05T11:33:36;101342.59;;;20.41;50.60
73624;BME280;61921;53.226;-1.296;2022-07-05T11:35:53;101335.42;;;20.35;50.61
73624;BME280;61921;53.226;-1.296;2022-07-05T11:38:18;101330.46;;;19.32;51.59
73624;BME280;61921;53.226;-1.296;2022-07-05T11:40:43;101333.47;;;19.42;51.36
73624;BME280;61921;53.226;-1.296;2022-07-05T11:43:08;101331.29;;;19.14;50.93
73624;BME280;61921;53.226;-1.296;2022-07-05T11:45:34;101333.71;;;19.92;49.49
73624;BME280;61921;53.226;-1.296;2022-07-05T11:47:58;101336.30;;;20.15;49.23
73624;BME280;61921;53.226;-1.296;2022-07-05T11:50:29;101335.64;;;20.59;48.35
73624;BME280;61921;53.226;-1.296;2022-07-05T11:52:49;101336.14;;;20.36;48.88
73624;BME280;61921;53.226;-1.296;2022-07-05T11:55:14;101341.31;;;20.19;47.85
73624;BME280;61921;53.226;-1.296;2022-07-05T11:57:48;101342.94;;;20.16;48.37
73624;BME280;61921;53.226;-1.296;2022-07-05T12:00:05;101345.77;;;20.12;48.66
73624;BME280;61921;53.226;-1.296;2022-07-05T12:02:29;101340.76;;;20.14;48.25
73624;BME280;61921;53.226;-1.296;2022-07-05T12:04:56;101346.63;;;20.60;47.29
73624;BME280;61921;53.226;-1.296;2022-07-05T12:07:26;101342.91;;;19.88;47.04
73624;BME280;61921;53.226;-1.296;2022-07-05T12:09:45;101351.48;;;19.82;47.85
73624;BME280;61921;53.226;-1.296;2022-07-05T12:12:10;101347.32;;;20.80;45.35
73624;BME280;61921;53.226;-1.296;2022-07-05T12:14:35;101337.36;;;21.48;44.57
73624;BME280;61921;53.226;-1.296;2022-07-05T12:17:11;101342.60;;;21.72;43.21
73624;BME280;61921;53.226;-1.296;2022-07-05T12:19:26;101341.11;;;21.71;43.67
73624;BME280;61921;53.226;-1.296;2022-07-05T12:21:52;101338.04;;;22.31;42.72
73624;BME280;61921;53.226;-1.296;2022-07-05T12:24:16;101341.89;;;21.59;43.31
73624;BME280;61921;53.226;-1.296;2022-07-05T12:26:40;101339.70;;;21.35;44.57
73624;BME280;61921;53.226;-1.296;2022-07-05T12:29:06;101339.93;;;20.50;45.55
73624;BME280;61921;53.226;-1.296;2022-07-05T12:31:31;101344.12;;;20.33;46.42
73624;BME280;61921;53.226;-1.296;2022-07-05T12:36:22;101346.84;;;19.65;48.00
73624;BME280;61921;53.226;-1.296;2022-07-05T12:38:46;101342.78;;;19.53;48.10
73624;BME280;61921;53.226;-1.296;2022-07-05T12:41:12;101346.45;;;19.30;49.28
73624;BME280;61921;53.226;-1.296;2022-07-05T12:43:49;101346.61;;;19.83;48.39